createdAt,value
2023-06-27T00:01:50.495Z,0.88
2023-06-27T00:04:17.530Z,0.70
2023-06-27T00:06:44.571Z,0.90
2023-06-27T00:09:12.210Z,1.30
2023-06-27T00:11:40.236Z,0.93
2023-06-27T00:14:10.287Z,1.23
2023-06-27T00:16:37.886Z,1.10
2023-06-27T00:19:05.529Z,0.85
2023-06-27T00:21:36.500Z,1.00
2023-06-27T00:24:04.763Z,0.93
2023-06-27T00:26:32.177Z,1.15
2023-06-27T00:28:59.443Z,0.80
2023-06-27T00:31:27.395Z,1.10
2023-06-27T00:33:54.478Z,0.98
2023-06-27T00:36:21.534Z,1.00
2023-06-27T00:38:48.496Z,1.13
2023-06-27T00:41:15.504Z,1.15
2023-06-27T00:43:42.599Z,1.40
2023-06-27T00:46:11.764Z,1.13
2023-06-27T00:48:40.249Z,1.20
2023-06-27T00:51:10.483Z,1.10
2023-06-27T00:53:38.507Z,1.20
2023-06-27T00:56:06.139Z,0.93
2023-06-27T00:58:34.645Z,0.95
2023-06-27T01:01:02.335Z,1.00
2023-06-27T01:03:34.068Z,1.20
2023-06-27T01:06:10.978Z,1.00
2023-06-27T01:08:51.116Z,0.90
2023-06-27T01:11:23.057Z,1.05
2023-06-27T01:13:56.572Z,1.20
2023-06-27T01:16:29.642Z,1.40
2023-06-27T01:19:02.020Z,1.10
2023-06-27T01:21:29.992Z,1.20
2023-06-27T01:24:07.300Z,1.52
2023-06-27T01:26:34.845Z,1.45
2023-06-27T01:29:01.930Z,1.02
2023-06-27T01:31:40.795Z,1.30
2023-06-27T01:34:13.826Z,1.60
2023-06-27T01:36:54.903Z,1.50
2023-06-27T01:39:30.813Z,1.38
2023-06-27T01:42:03.995Z,1.60
2023-06-27T01:44:34.132Z,1.73
2023-06-27T01:47:01.132Z,1.58
2023-06-27T01:49:28.155Z,1.48
2023-06-27T01:51:58.884Z,1.70
2023-06-27T01:54:26.146Z,1.80
2023-06-27T01:56:53.191Z,1.85
2023-06-27T01:59:20.165Z,1.60
2023-06-27T02:01:47.604Z,1.40
2023-06-27T02:04:14.612Z,1.23
2023-06-27T02:06:41.589Z,1.42
2023-06-27T02:09:09.386Z,1.40
2023-06-27T02:11:36.281Z,1.55
2023-06-27T02:14:03.183Z,1.70
2023-06-27T02:16:30.045Z,1.30
2023-06-27T02:18:56.930Z,1.27
2023-06-27T02:21:26.788Z,1.60
2023-06-27T02:23:53.657Z,1.30
2023-06-27T02:26:20.631Z,1.85
2023-06-27T02:28:47.681Z,1.20
2023-06-27T02:31:14.907Z,1.70
2023-06-27T02:33:41.830Z,1.42
2023-06-27T02:36:08.859Z,1.48
2023-06-27T02:38:35.794Z,1.52
2023-06-27T02:41:02.748Z,1.40
2023-06-27T02:43:29.694Z,1.55
2023-06-27T02:45:58.356Z,1.50
2023-06-27T02:48:26.526Z,1.40
2023-06-27T02:50:53.687Z,1.27
2023-06-27T02:53:21.058Z,1.70
2023-06-27T02:55:49.247Z,1.30
2023-06-27T02:58:16.220Z,1.40
2023-06-27T03:00:43.385Z,1.85
2023-06-27T03:03:10.596Z,1.20
2023-06-27T03:05:37.805Z,1.40
2023-06-27T03:08:05.051Z,1.52
2023-06-27T03:10:32.465Z,1.35
2023-06-27T03:13:00.586Z,1.25
2023-06-27T03:15:27.744Z,1.38
2023-06-27T03:17:55.081Z,1.52
2023-06-27T03:20:23.018Z,1.50
2023-06-27T03:22:49.932Z,1.00
2023-06-27T03:25:17.456Z,1.10
2023-06-27T03:27:44.569Z,1.38
2023-06-27T03:30:13.306Z,1.30
2023-06-27T03:32:41.680Z,1.40
2023-06-27T03:35:08.884Z,1.38
2023-06-27T03:37:37.013Z,1.50
2023-06-27T03:40:05.790Z,1.50
2023-06-27T03:42:32.723Z,1.45
2023-06-27T03:45:00.298Z,1.25
2023-06-27T03:47:27.465Z,1.33
2023-06-27T03:49:54.567Z,1.17
2023-06-27T03:52:21.411Z,1.10
2023-06-27T03:54:48.623Z,1.23
2023-06-27T03:57:15.631Z,1.15
2023-06-27T03:59:42.905Z,1.23
2023-06-27T04:02:09.801Z,1.35
2023-06-27T04:04:36.908Z,1.52
2023-06-27T04:07:04.049Z,1.02
2023-06-27T04:09:30.980Z,1.27
2023-06-27T04:12:00.512Z,1.45
2023-06-27T04:14:28.882Z,1.13
2023-06-27T04:16:56.014Z,1.10
2023-06-27T04:19:23.044Z,1.40
2023-06-27T04:21:49.980Z,1.30
2023-06-27T04:24:16.902Z,1.00
2023-06-27T04:26:43.907Z,1.02
2023-06-27T04:29:11.889Z,1.25
2023-06-27T04:31:39.119Z,1.30
2023-06-27T04:34:06.265Z,1.35
2023-06-27T04:36:35.275Z,1.20
2023-06-27T04:39:04.956Z,1.15
2023-06-27T04:41:31.837Z,1.25
2023-06-27T04:44:00.123Z,1.38
2023-06-27T04:46:29.612Z,1.30
2023-06-27T04:49:00.309Z,1.02
2023-06-27T04:51:29.117Z,1.13
2023-06-27T04:53:56.613Z,1.48
2023-06-27T04:56:23.934Z,1.20
2023-06-27T04:58:50.847Z,1.25
2023-06-27T05:01:17.943Z,1.30
2023-06-27T05:03:44.904Z,1.38
2023-06-27T05:06:11.791Z,1.27
2023-06-27T05:08:38.728Z,1.10
2023-06-27T05:11:05.693Z,1.23
2023-06-27T05:13:32.638Z,1.20
2023-06-27T05:15:59.859Z,1.60
2023-06-27T05:18:27.407Z,1.30
2023-06-27T05:20:55.304Z,1.50
2023-06-27T05:23:22.324Z,1.40
2023-06-27T05:25:50.701Z,1.52
2023-06-27T05:28:17.950Z,1.35
2023-06-27T05:30:45.131Z,1.33
2023-06-27T05:33:12.144Z,0.98
2023-06-27T05:35:39.450Z,1.20
2023-06-27T05:38:07.203Z,1.38
2023-06-27T05:40:34.158Z,1.50
2023-06-27T05:43:01.124Z,1.38
2023-06-27T05:45:28.115Z,1.35
2023-06-27T05:47:55.042Z,1.30
2023-06-27T05:50:21.994Z,1.35
2023-06-27T05:52:49.562Z,1.35
2023-06-27T05:55:16.583Z,1.38
2023-06-27T05:57:43.577Z,1.17
2023-06-27T06:00:12.243Z,1.33
2023-06-27T06:02:41.006Z,1.23
2023-06-27T06:05:08.737Z,2.10
2023-06-27T06:07:35.872Z,1.60
2023-06-27T06:10:03.576Z,3.17
2023-06-27T06:12:30.569Z,1.60
2023-06-27T06:14:57.570Z,1.83
2023-06-27T06:17:24.516Z,1.70
2023-06-27T06:19:51.474Z,1.58
2023-06-27T06:22:18.413Z,1.67
2023-06-27T06:24:45.360Z,1.73
2023-06-27T06:27:12.438Z,1.77
2023-06-27T06:29:39.384Z,1.67
2023-06-27T06:32:06.855Z,2.03
2023-06-27T06:34:33.744Z,2.00
2023-06-27T06:37:00.762Z,2.00
2023-06-27T06:39:27.745Z,1.58
2023-06-27T06:41:54.670Z,1.83
2023-06-27T06:44:21.596Z,2.05
2023-06-27T06:46:48.497Z,2.78
2023-06-27T06:49:15.432Z,1.88
2023-06-27T06:51:42.389Z,1.77
2023-06-27T06:54:09.350Z,1.63
2023-06-27T06:56:36.375Z,1.60
2023-06-27T06:59:04.220Z,1.90
2023-06-27T07:01:31.258Z,1.75
2023-06-27T07:03:58.702Z,1.63
2023-06-27T07:06:25.702Z,1.55
2023-06-27T07:08:53.557Z,1.67
2023-06-27T07:11:20.513Z,1.38
2023-06-27T07:13:47.411Z,1.35
2023-06-27T07:16:15.661Z,1.50
2023-06-27T07:18:43.724Z,1.50
2023-06-27T07:21:10.775Z,1.00
2023-06-27T07:23:38.182Z,1.17
2023-06-27T07:26:05.469Z,1.38
2023-06-27T07:28:32.538Z,1.33
2023-06-27T07:30:59.556Z,1.27
2023-06-27T07:33:26.938Z,1.38
2023-06-27T07:35:54.009Z,1.30
2023-06-27T07:38:20.985Z,1.42
2023-06-27T07:40:47.876Z,1.08
2023-06-27T07:43:14.974Z,1.25
2023-06-27T07:45:41.909Z,1.40
2023-06-27T07:48:08.949Z,1.23
2023-06-27T07:50:35.970Z,1.20
2023-06-27T07:53:02.976Z,1.20
2023-06-27T07:55:29.929Z,0.90
2023-06-27T07:57:56.885Z,1.10
2023-06-27T08:00:24.172Z,0.93
2023-06-27T08:02:51.314Z,1.10
2023-06-27T08:05:19.539Z,1.25
2023-06-27T08:07:46.563Z,1.40
2023-06-27T08:10:13.517Z,0.90
2023-06-27T08:12:40.619Z,1.08
2023-06-27T08:15:08.073Z,1.02
2023-06-27T08:17:35.600Z,1.20
2023-06-27T08:20:02.623Z,0.95
2023-06-27T08:22:32.541Z,1.13
2023-06-27T08:24:59.449Z,1.10
2023-06-27T08:27:26.347Z,0.93
2023-06-27T08:29:53.226Z,0.95
2023-06-27T08:32:20.229Z,1.05
2023-06-27T08:34:47.367Z,1.20
2023-06-27T08:37:14.767Z,1.20
2023-06-27T08:39:41.893Z,1.20
2023-06-27T08:42:08.903Z,1.08
2023-06-27T08:44:35.893Z,0.85
2023-06-27T08:47:06.913Z,1.08
2023-06-27T08:49:35.980Z,0.80
2023-06-27T08:52:04.415Z,0.90
2023-06-27T08:54:40.554Z,0.95
2023-06-27T08:57:08.297Z,0.85
2023-06-27T08:59:37.032Z,1.25
2023-06-27T09:02:05.685Z,0.80
2023-06-27T09:04:36.282Z,0.80
2023-06-27T09:07:05.283Z,0.80
2023-06-27T09:09:32.487Z,0.80
2023-06-27T09:12:03.750Z,0.98
2023-06-27T09:14:30.782Z,0.85
2023-06-27T09:16:57.730Z,0.85
2023-06-27T09:19:24.713Z,0.90
2023-06-27T09:21:52.188Z,0.70
2023-06-27T09:24:26.159Z,0.80
2023-06-27T09:26:53.289Z,1.00
2023-06-27T09:29:21.138Z,1.15
2023-06-27T09:31:48.361Z,1.00
2023-06-27T09:34:15.525Z,1.10
2023-06-27T09:39:18.133Z,0.90
2023-06-27T09:41:48.007Z,1.05
2023-06-27T09:44:19.605Z,0.80
2023-06-27T09:46:47.834Z,1.00
2023-06-27T09:49:19.305Z,1.02
2023-06-27T09:51:51.454Z,0.90
2023-06-27T09:54:23.236Z,0.80
2023-06-27T09:56:51.752Z,0.85
2023-06-27T09:59:25.503Z,0.98
2023-06-27T10:01:54.913Z,1.15
2023-06-27T10:06:53.441Z,0.70
2023-06-27T10:09:20.740Z,0.70
2023-06-27T10:11:48.064Z,0.80
2023-06-27T10:14:16.124Z,1.23
2023-06-27T10:16:43.364Z,0.88
2023-06-27T10:19:10.542Z,0.70
2023-06-27T10:21:37.586Z,0.90
2023-06-27T10:24:06.043Z,1.00
2023-06-27T10:26:34.015Z,0.75
2023-06-27T10:29:13.511Z,0.77
2023-06-27T10:31:44.187Z,0.70
2023-06-27T10:34:19.930Z,0.75
2023-06-27T10:36:56.696Z,1.02
2023-06-27T10:39:32.875Z,1.13
2023-06-27T10:42:19.387Z,0.82
2023-06-27T10:44:55.570Z,0.75
2023-06-27T10:47:22.641Z,1.17
2023-06-27T10:49:50.462Z,0.80
2023-06-27T10:52:27.323Z,0.77
2023-06-27T10:55:20.257Z,0.80
2023-06-27T10:57:50.901Z,0.75
2023-06-27T11:00:30.511Z,0.98
2023-06-27T11:02:58.652Z,0.70
2023-06-27T11:05:44.033Z,1.20
2023-06-27T11:08:14.481Z,0.85
2023-06-27T11:11:06.817Z,0.60
2023-06-27T11:13:39.761Z,0.80
2023-06-27T11:16:06.870Z,0.80
2023-06-27T11:18:34.963Z,1.05
2023-06-27T11:21:03.846Z,1.08
2023-06-27T11:23:31.044Z,0.90
2023-06-27T11:25:58.084Z,1.10
2023-06-27T11:28:25.600Z,1.00
2023-06-27T11:31:00.472Z,0.88
2023-06-27T11:33:28.164Z,1.00
2023-06-27T11:35:59.905Z,0.80
2023-06-27T11:38:27.749Z,0.88
2023-06-27T11:40:54.729Z,1.13
2023-06-27T11:43:21.778Z,1.02
2023-06-27T11:45:53.764Z,1.00
2023-06-27T11:48:21.012Z,1.02
2023-06-27T11:51:08.943Z,1.02
2023-06-27T11:53:39.797Z,1.27
2023-06-27T11:56:21.317Z,0.90
2023-06-27T11:58:49.673Z,1.10
2023-06-27T12:01:18.486Z,0.70
2023-06-27T12:03:51.308Z,1.02
2023-06-27T12:06:29.861Z,0.80
2023-06-27T12:08:57.320Z,1.23
2023-06-27T12:11:36.873Z,0.60
2023-06-27T12:14:05.867Z,1.00
2023-06-27T12:16:35.222Z,1.00
2023-06-27T12:19:08.593Z,0.88
2023-06-27T12:21:35.874Z,0.80
2023-06-27T12:24:04.109Z,1.02
2023-06-27T12:26:31.570Z,0.88
2023-06-27T12:28:59.956Z,1.05
2023-06-27T12:31:27.419Z,1.02
2023-06-27T12:33:55.142Z,1.00
2023-06-27T12:36:24.400Z,0.90
2023-06-27T12:38:52.345Z,0.82
2023-06-27T12:41:20.052Z,0.90
2023-06-27T12:43:47.854Z,0.80
2023-06-27T12:46:15.489Z,2.42
2023-06-27T12:48:43.869Z,1.65
2023-06-27T12:51:12.837Z,1.10
2023-06-27T12:53:40.344Z,1.60
2023-06-27T12:56:07.860Z,1.05
2023-06-27T12:58:36.114Z,1.30
2023-06-27T13:01:03.351Z,1.20
2023-06-27T13:03:31.490Z,1.25
2023-06-27T13:05:58.919Z,1.30
2023-06-27T13:08:25.808Z,1.20
2023-06-27T13:10:53.436Z,1.05
2023-06-27T13:13:20.416Z,1.25
2023-06-27T13:18:17.348Z,1.25
2023-06-27T13:20:46.185Z,1.05
2023-06-27T13:23:13.280Z,1.40
2023-06-27T13:25:42.973Z,1.10
2023-06-27T13:28:10.212Z,0.93
2023-06-27T13:30:37.182Z,1.25
2023-06-27T13:33:04.278Z,1.40
2023-06-27T13:35:31.205Z,1.20
2023-06-27T13:38:01.918Z,1.30
2023-06-27T13:40:29.565Z,1.08
2023-06-27T13:42:57.455Z,1.10
2023-06-27T13:45:25.194Z,0.80
2023-06-27T13:47:52.614Z,1.00
2023-06-27T13:50:21.344Z,1.33
2023-06-27T13:52:48.212Z,1.30
2023-06-27T13:55:15.225Z,0.95
2023-06-27T13:57:42.167Z,1.25
2023-06-27T14:00:10.102Z,1.20
2023-06-27T14:02:39.631Z,1.10
2023-06-27T14:05:25.273Z,1.10
2023-06-27T14:07:53.080Z,1.20
2023-06-27T14:10:20.250Z,1.10
2023-06-27T14:12:47.204Z,1.08
2023-06-27T14:15:14.299Z,1.00
2023-06-27T14:17:41.515Z,1.30
2023-06-27T14:20:10.060Z,0.88
2023-06-27T14:22:37.081Z,0.90
2023-06-27T14:25:05.313Z,1.15
2023-06-27T14:27:32.431Z,1.10
2023-06-27T14:29:59.336Z,0.98
2023-06-27T14:32:26.453Z,1.05
2023-06-27T14:34:53.447Z,0.90
2023-06-27T14:37:20.419Z,1.00
2023-06-27T14:39:47.376Z,1.05
2023-06-27T14:42:14.310Z,1.20
2023-06-27T14:44:41.281Z,1.20
2023-06-27T14:47:08.511Z,1.52
2023-06-27T14:49:35.415Z,1.70
2023-06-27T14:52:02.341Z,1.02
2023-06-27T14:54:29.213Z,1.35
2023-06-27T14:56:56.110Z,1.35
2023-06-27T14:59:23.128Z,1.45
2023-06-27T15:01:49.976Z,1.17
2023-06-27T15:04:16.862Z,1.20
2023-06-27T15:06:45.069Z,1.42
2023-06-27T15:09:12.460Z,1.10
2023-06-27T15:11:39.449Z,1.08
2023-06-27T15:14:06.316Z,1.20
2023-06-27T15:16:33.228Z,1.20
2023-06-27T15:19:00.252Z,0.90
2023-06-27T15:21:27.240Z,0.90
2023-06-27T15:23:54.276Z,1.17
2023-06-27T15:26:21.239Z,1.05
2023-06-27T15:28:49.428Z,1.40
2023-06-27T15:31:16.589Z,1.20
2023-06-27T15:33:43.577Z,0.90
2023-06-27T15:36:13.352Z,1.02
2023-06-27T15:38:42.539Z,1.00
2023-06-27T15:41:09.420Z,1.02
2023-06-27T15:43:37.229Z,1.13
2023-06-27T15:46:04.391Z,1.25
2023-06-27T15:48:31.655Z,1.60
2023-06-27T15:50:59.982Z,1.17
2023-06-27T15:53:27.034Z,1.30
2023-06-27T15:55:54.229Z,1.42
2023-06-27T15:58:21.190Z,1.02
2023-06-27T16:00:48.157Z,0.90
2023-06-27T16:03:15.245Z,1.23
2023-06-27T16:05:42.294Z,1.45
2023-06-27T16:08:09.490Z,1.38
2023-06-27T16:10:36.385Z,0.95
2023-06-27T16:13:03.681Z,1.00
2023-06-27T16:15:30.789Z,1.50
2023-06-27T16:17:57.745Z,1.00
2023-06-27T16:20:25.270Z,1.17
2023-06-27T16:22:52.205Z,1.10
2023-06-27T16:25:19.178Z,1.05
2023-06-27T16:27:46.127Z,1.05
2023-06-27T16:30:13.237Z,0.98
2023-06-27T16:32:40.165Z,1.60
2023-06-27T16:35:07.777Z,1.10
2023-06-27T16:37:35.232Z,1.33
2023-06-27T16:40:02.716Z,1.13
2023-06-27T16:42:29.689Z,1.20
2023-06-27T16:44:56.596Z,1.23
2023-06-27T16:47:23.509Z,1.50
2023-06-27T16:49:50.428Z,0.90
2023-06-27T16:52:17.336Z,1.30
2023-06-27T16:54:44.261Z,1.20
2023-06-27T16:57:11.219Z,1.30
2023-06-27T16:59:38.178Z,1.40
2023-06-27T17:02:05.482Z,1.08
2023-06-27T17:04:33.090Z,1.02
2023-06-27T17:07:00.016Z,0.90
2023-06-27T17:09:26.940Z,1.10
2023-06-27T17:11:53.847Z,0.98
2023-06-27T17:14:20.958Z,1.48
2023-06-27T17:16:47.908Z,1.15
2023-06-27T17:19:14.946Z,1.10
2023-06-27T17:21:41.912Z,1.30
2023-06-27T17:24:08.882Z,1.23
2023-06-27T17:26:35.802Z,1.10
2023-06-27T17:29:02.785Z,1.40
2023-06-27T17:31:29.839Z,1.40
2023-06-27T17:33:56.856Z,1.35
2023-06-27T17:36:25.214Z,1.05
2023-06-27T17:38:53.241Z,1.42
2023-06-27T17:41:20.121Z,1.60
2023-06-27T17:43:46.986Z,1.20
2023-06-27T17:46:13.934Z,1.00
2023-06-27T17:48:40.814Z,1.00
2023-06-27T17:51:07.715Z,1.27
2023-06-27T17:53:35.093Z,1.20
2023-06-27T17:56:02.011Z,1.20
2023-06-27T17:58:28.940Z,1.10
2023-06-27T18:01:00.563Z,1.25
2023-06-27T18:03:27.647Z,1.38
2023-06-27T18:05:55.689Z,0.90
2023-06-27T18:08:22.745Z,1.33
2023-06-27T18:10:49.696Z,1.05
2023-06-27T18:13:17.488Z,1.33
2023-06-27T18:15:44.565Z,1.33
2023-06-27T18:18:11.576Z,1.27
2023-06-27T18:20:39.566Z,1.40
2023-06-27T18:23:10.423Z,1.20
2023-06-27T18:25:38.229Z,1.15
2023-06-27T18:28:05.398Z,1.35
2023-06-27T18:30:32.619Z,1.27
2023-06-27T18:33:02.098Z,2.10
2023-06-27T18:35:30.006Z,1.40
2023-06-27T18:37:58.527Z,1.90
2023-06-27T18:40:25.541Z,1.98
2023-06-27T18:42:54.743Z,1.85
2023-06-27T18:45:25.394Z,2.40
2023-06-27T18:47:53.284Z,1.50
2023-06-27T18:50:21.936Z,1.98
2023-06-27T18:52:49.647Z,2.08
2023-06-27T18:55:16.494Z,2.13
2023-06-27T18:57:43.609Z,1.77
2023-06-27T19:00:11.142Z,1.65
2023-06-27T19:02:38.558Z,1.55
2023-06-27T19:05:06.763Z,2.17
2023-06-27T19:07:34.189Z,1.50
2023-06-27T19:10:01.475Z,1.02
2023-06-27T19:12:28.459Z,1.55
2023-06-27T19:14:55.355Z,1.02
2023-06-27T19:17:22.403Z,1.30
2023-06-27T19:19:49.954Z,1.23
2023-06-27T19:22:17.524Z,1.40
2023-06-27T19:24:44.426Z,0.95
2023-06-27T19:27:11.386Z,1.13
2023-06-27T19:29:38.337Z,1.13
2023-06-27T19:32:05.684Z,1.27
2023-06-27T19:34:34.283Z,1.40
2023-06-27T19:37:01.174Z,1.35
2023-06-27T19:39:28.184Z,1.48
2023-06-27T19:41:56.357Z,1.13
2023-06-27T19:44:23.705Z,1.45
2023-06-27T19:46:50.639Z,1.38
2023-06-27T19:49:18.121Z,1.20
2023-06-27T19:51:45.198Z,1.23
2023-06-27T19:54:12.125Z,1.10
2023-06-27T19:56:41.069Z,1.30
2023-06-27T19:59:08.421Z,1.40
2023-06-27T20:01:35.644Z,1.83
2023-06-27T20:04:03.638Z,1.13
2023-06-27T20:06:30.632Z,1.10
2023-06-27T20:08:57.614Z,1.20
2023-06-27T20:11:24.574Z,1.15
2023-06-27T20:13:51.599Z,1.60
2023-06-27T20:16:18.601Z,1.52
2023-06-27T20:18:46.710Z,1.30
2023-06-27T20:21:13.802Z,1.10
2023-06-27T20:23:40.711Z,1.02
2023-06-27T20:26:08.837Z,1.30
2023-06-27T20:28:35.787Z,1.30
2023-06-27T20:31:03.509Z,1.42
2023-06-27T20:33:30.598Z,2.08
2023-06-27T20:35:57.558Z,1.80
2023-06-27T20:38:24.456Z,2.13
2023-06-27T20:40:51.366Z,1.88
2023-06-27T20:43:18.327Z,1.73
2023-06-27T20:45:45.375Z,2.03
2023-06-27T20:48:12.363Z,2.03
2023-06-27T20:50:39.781Z,1.75
2023-06-27T20:53:07.091Z,1.70
2023-06-27T20:55:34.040Z,1.85
2023-06-27T20:58:01.082Z,1.98
2023-06-27T21:00:31.721Z,1.20
2023-06-27T21:02:58.863Z,1.73
2023-06-27T21:05:26.002Z,1.50
2023-06-27T21:07:52.911Z,1.58
2023-06-27T21:10:20.198Z,1.13
2023-06-27T21:12:47.457Z,1.50
2023-06-27T21:15:14.409Z,1.30
2023-06-27T21:17:41.652Z,1.45
2023-06-27T21:20:09.368Z,1.58
2023-06-27T21:22:36.405Z,1.10
2023-06-27T21:25:03.394Z,1.40
2023-06-27T21:27:46.149Z,1.10
2023-06-27T21:30:18.564Z,1.08
2023-06-27T21:32:45.618Z,1.08
2023-06-27T21:35:12.636Z,1.08
2023-06-27T21:37:39.555Z,1.15
2023-06-27T21:40:07.063Z,0.90
2023-06-27T21:42:33.995Z,1.33
2023-06-27T21:45:01.000Z,0.80
2023-06-27T21:47:28.188Z,0.90
2023-06-27T21:49:59.312Z,1.00
2023-06-27T21:52:26.388Z,1.10
2023-06-27T21:54:53.338Z,1.15
2023-06-27T21:57:20.226Z,1.08
2023-06-27T21:59:47.131Z,0.95
2023-06-27T22:02:14.067Z,1.10
2023-06-27T22:04:41.155Z,1.38
2023-06-27T22:07:08.392Z,0.95
2023-06-27T22:09:35.319Z,0.90
2023-06-27T22:12:02.495Z,1.10
2023-06-27T22:14:29.427Z,0.90
2023-06-27T22:16:56.342Z,0.93
2023-06-27T22:19:23.236Z,1.08
2023-06-27T22:21:50.151Z,1.13
2023-06-27T22:24:17.087Z,1.10
2023-06-27T22:26:44.096Z,1.13
2023-06-27T22:29:10.976Z,1.00
2023-06-27T22:31:37.942Z,0.90
2023-06-27T22:34:04.914Z,0.82
2023-06-27T22:36:31.755Z,1.00
2023-06-27T22:38:58.713Z,1.02
2023-06-27T22:41:25.649Z,0.88
2023-06-27T22:43:52.688Z,1.00
2023-06-27T22:46:19.904Z,1.20
2023-06-27T22:48:46.945Z,1.27
2023-06-27T22:51:13.841Z,1.10
2023-06-27T22:53:44.630Z,1.02
2023-06-27T22:56:12.307Z,1.10
2023-06-27T22:58:39.637Z,0.80
2023-06-27T23:01:07.551Z,1.17
2023-06-27T23:03:34.625Z,0.90
2023-06-27T23:06:01.806Z,1.00
2023-06-27T23:08:29.088Z,1.08
2023-06-27T23:10:56.232Z,1.30
2023-06-27T23:13:23.178Z,1.30
2023-06-27T23:15:50.541Z,1.40
2023-06-27T23:18:20.173Z,1.30
2023-06-27T23:20:51.626Z,1.02
2023-06-27T23:23:19.242Z,1.42
2023-06-27T23:25:49.214Z,1.77
2023-06-27T23:28:17.944Z,1.63
2023-06-27T23:30:53.697Z,1.40
2023-06-27T23:33:24.971Z,1.25
2023-06-27T23:35:52.121Z,1.38
2023-06-27T23:38:20.180Z,1.52
2023-06-27T23:40:51.130Z,1.55
2023-06-27T23:43:18.090Z,1.45
2023-06-27T23:45:45.081Z,1.70
